Time;durP1;ratioP1;P1;durP2;ratioP2;P2;SDS_P1;SDS_P2;PMS_P1;PMS_P2;Temp;Humidity;BMP_temperature;BMP_pressure;BME280_temperature;BME280_humidity;BME280_pressure;Samples;Min_cycle;Max_cycle;Signal;HPM_P1;HPM_P2
2023/12/09 00:00:55;;;;;;;93.32;39.03;;;4.50;99.90;;;;;;4926961;28;20177;-75
2023/12/09 00:03:21;;;;;;;91.65;38.67;;;4.60;99.90;;;;;;4947645;28;20057;-75
2023/12/09 00:05:48;;;;;;;89.28;38.97;;;4.60;99.90;;;;;;4936903;28;20050;-75
2023/12/09 00:08:15;;;;;;;107.15;42.65;;;4.50;99.90;;;;;;4931719;28;20525;-76
2023/12/09 00:10:42;;;;;;;97.35;40.03;;;4.50;99.90;;;;;;4920735;28;20133;-75
2023/12/09 00:13:09;;;;;;;97.68;39.55;;;4.50;99.90;;;;;;4948215;28;20054;-75
2023/12/09 00:15:36;;;;;;;90.93;38.20;;;4.40;99.90;;;;;;4930598;28;20054;-74
2023/12/09 00:18:03;;;;;;;93.03;37.53;;;4.40;99.90;;;;;;4926049;28;20035;-75
2023/12/09 00:20:30;;;;;;;86.53;37.33;;;4.40;99.90;;;;;;4931519;28;20877;-75
2023/12/09 00:22:57;;;;;;;85.50;34.28;;;4.40;99.90;;;;;;4921942;28;20039;-75
2023/12/09 00:25:24;;;;;;;85.22;35.88;;;4.40;99.90;;;;;;4930118;28;20130;-74
2023/12/09 00:27:51;;;;;;;85.10;37.05;;;4.40;99.90;;;;;;4954852;28;20057;-75
2023/12/09 00:30:17;;;;;;;81.88;35.03;;;4.40;99.90;;;;;;4934497;28;20458;-77
2023/12/09 00:32:44;;;;;;;85.88;36.75;;;4.40;99.90;;;;;;4933991;28;20561;-74
2023/12/09 00:35:11;;;;;;;88.32;36.47;;;4.40;99.90;;;;;;4945098;28;20504;-75
2023/12/09 00:37:38;;;;;;;91.88;38.17;;;4.40;99.90;;;;;;4934544;28;20055;-75
2023/12/09 00:40:05;;;;;;;91.68;37.60;;;4.40;99.90;;;;;;4924326;28;20082;-75
2023/12/09 00:42:32;;;;;;;90.82;38.65;;;4.40;99.90;;;;;;4938452;28;22020;-75
2023/12/09 00:44:59;;;;;;;80.95;38.10;;;4.50;99.90;;;;;;4940111;28;20042;-76
2023/12/09 00:47:26;;;;;;;93.55;39.33;;;4.40;99.90;;;;;;4916420;28;20050;-76
2023/12/09 00:49:53;;;;;;;79.05;37.75;;;4.40;99.90;;;;;;4937280;28;20066;-74
2023/12/09 00:52:20;;;;;;;113.97;42.58;;;4.30;99.90;;;;;;4935593;28;20046;-75
2023/12/09 00:54:47;;;;;;;94.10;37.92;;;4.30;99.90;;;;;;4936230;28;20042;-74
2023/12/09 00:57:14;;;;;;;88.05;37.22;;;4.20;99.90;;;;;;4955045;28;20070;-75
2023/12/09 00:59:41;;;;;;;75.72;34.35;;;4.30;99.90;;;;;;4957926;28;20113;-74
2023/12/09 01:02:08;;;;;;;78.00;34.88;;;4.20;99.90;;;;;;4930040;28;20061;-75
2023/12/09 01:04:35;;;;;;;76.57;35.53;;;4.10;99.90;;;;;;4936335;28;20058;-76
2023/12/09 01:07:01;;;;;;;80.45;34.63;;;4.20;99.90;;;;;;4937524;28;20047;-75
2023/12/09 01:09:29;;;;;;;72.00;34.42;;;4.10;99.90;;;;;;4922587;28;21650;-74
2023/12/09 01:11:56;;;;;;;80.45;36.15;;;4.20;99.90;;;;;;4936902;28;20134;-75
2023/12/09 01:14:22;;;;;;;82.03;34.25;;;4.20;99.90;;;;;;4931355;28;20140;-75
2023/12/09 01:16:49;;;;;;;81.35;33.95;;;4.30;99.90;;;;;;4936498;28;20039;-75
2023/12/09 01:19:16;;;;;;;79.97;35.15;;;4.20;99.90;;;;;;4957349;28;20046;-75
2023/12/09 01:21:43;;;;;;;75.93;34.10;;;4.30;99.90;;;;;;4947249;28;20409;-75
2023/12/09 01:24:10;;;;;;;75.75;37.03;;;4.20;99.90;;;;;;4944108;28;20042;-75
2023/12/09 01:26:37;;;;;;;82.20;33.58;;;4.20;99.90;;;;;;4933430;28;20088;-76
2023/12/09 01:29:04;;;;;;;80.03;33.58;;;4.20;99.90;;;;;;4923850;28;20049;-75
2023/12/09 01:31:31;;;;;;;79.05;34.20;;;4.20;99.90;;;;;;4920528;28;20133;-76
2023/12/09 01:33:57;;;;;;;82.07;34.33;;;4.20;99.90;;;;;;4940746;28;20047;-75
2023/12/09 01:36:25;;;;;;;84.88;36.55;;;4.20;99.90;;;;;;4931343;28;20039;-73
2023/12/09 01:38:52;;;;;;;89.32;36.47;;;4.30;99.90;;;;;;4956953;28;20055;-74
2023/12/09 01:41:19;;;;;;;74.97;35.83;;;4.30;99.90;;;;;;4920594;28;20046;-74
2023/12/09 01:43:48;;;;;;;77.85;36.85;;;4.20;99.90;;;;;;4939180;28;20051;-74
2023/12/09 01:46:17;;;;;;;81.60;37.28;;;4.30;99.90;;;;;;4925123;28;20042;-73
2023/12/09 01:48:44;;;;;;;83.43;37.58;;;4.30;99.90;;;;;;4937167;28;20047;-73
2023/12/09 01:51:14;;;;;;;84.72;36.67;;;4.30;99.90;;;;;;4944119;28;20136;-72
2023/12/09 01:53:42;;;;;;;71.13;34.70;;;4.30;99.90;;;;;;4930002;28;20172;-74
2023/12/09 01:56:12;;;;;;;79.25;35.75;;;4.20;99.90;;;;;;4949728;28;20097;-75
2023/12/09 01:58:40;;;;;;;74.78;32.10;;;4.30;99.90;;;;;;4955762;28;20232;-75
2023/12/09 02:01:07;;;;;;;62.25;31.83;;;4.20;99.90;;;;;;4931106;28;20043;-77
2023/12/09 02:03:34;;;;;;;77.35;34.55;;;4.30;99.90;;;;;;4937494;28;20105;-76
2023/12/09 02:06:01;;;;;;;78.32;34.53;;;4.30;99.90;;;;;;4928089;28;20035;-76
2023/12/09 02:08:28;;;;;;;77.55;34.58;;;4.40;99.90;;;;;;4941644;28;20046;-76
2023/12/09 02:11:12;;;;;;;85.30;34.25;;;4.40;99.90;;;;;;4931564;28;20092;-75
2023/12/09 02:13:54;;;;;;;70.75;32.45;;;4.30;99.90;;;;;;4925228;28;20779;-76
2023/12/09 02:16:34;;;;;;;55.85;28.83;;;4.30;99.90;;;;;;4949673;28;20169;-75
2023/12/09 02:19:01;;;;;;;82.10;31.02;;;4.30;99.90;;;;;;4940968;28;20043;-75
2023/12/09 02:21:28;;;;;;;65.38;29.88;;;4.30;99.90;;;;;;4940291;28;20131;-75
2023/12/09 02:23:55;;;;;;;63.58;29.30;;;4.30;99.90;;;;;;4938915;28;20043;-75
2023/12/09 02:26:26;;;;;;;62.72;29.73;;;4.20;99.90;;;;;;4938760;28;20536;-75
2023/12/09 02:29:00;;;;;;;63.53;29.73;;;4.20;99.90;;;;;;4935918;28;20651;-75
2023/12/09 02:31:30;;;;;;;61.75;30.25;;;4.20;99.90;;;;;;4957238;28;20526;-75
2023/12/09 02:34:01;;;;;;;63.03;29.58;;;4.20;99.90;;;;;;4939398;28;20112;-75
2023/12/09 02:36:29;;;;;;;65.53;31.05;;;4.20;99.90;;;;;;4935586;28;20054;-75
2023/12/09 02:38:57;;;;;;;59.03;27.55;;;4.20;99.90;;;;;;4957456;28;20078;-75
2023/12/09 02:41:26;;;;;;;66.75;30.13;;;4.30;99.90;;;;;;4941500;28;20042;-76
2023/12/09 02:43:53;;;;;;;53.22;29.35;;;4.30;99.90;;;;;;4955578;28;20043;-74
2023/12/09 02:46:20;;;;;;;69.43;32.58;;;4.20;99.90;;;;;;4956584;28;20054;-75
2023/12/09 02:48:47;;;;;;;72.68;32.78;;;4.30;99.90;;;;;;4938980;28;20063;-74
2023/12/09 02:51:14;;;;;;;67.15;32.03;;;4.30;99.90;;;;;;4939292;28;20099;-75
2023/12/09 02:53:41;;;;;;;54.75;28.60;;;4.20;99.90;;;;;;4934823;28;20050;-76
2023/12/09 02:56:08;;;;;;;73.85;32.70;;;4.20;99.90;;;;;;4957874;28;20047;-75
2023/12/09 02:58:35;;;;;;;69.47;30.13;;;4.30;99.90;;;;;;4940772;28;22743;-75
2023/12/09 03:01:02;;;;;;;66.35;31.15;;;4.30;99.90;;;;;;4941362;28;20044;-74
2023/12/09 03:03:29;;;;;;;51.90;26.92;;;4.20;99.90;;;;;;4934674;28;20269;-74
2023/12/09 03:05:59;;;;;;;47.88;26.30;;;4.30;99.90;;;;;;4953284;28;20535;-74
2023/12/09 03:08:26;;;;;;;54.13;28.30;;;4.30;99.90;;;;;;4960765;28;20043;-74
2023/12/09 03:10:53;;;;;;;54.33;26.98;;;4.30;99.90;;;;;;4940257;28;20125;-73
2023/12/09 03:13:20;;;;;;;52.83;29.23;;;4.30;99.90;;;;;;4923868;28;20047;-73
2023/12/09 03:15:47;;;;;;;50.95;28.92;;;4.30;99.90;;;;;;4955811;28;20170;-73
2023/12/09 03:18:14;;;;;;;52.80;29.55;;;4.30;99.90;;;;;;4930756;28;20121;-74
2023/12/09 03:20:41;;;;;;;55.30;29.05;;;4.20;99.90;;;;;;4931523;28;20051;-73
2023/12/09 03:23:08;;;;;;;58.88;29.67;;;4.20;99.90;;;;;;4922892;28;20127;-74
2023/12/09 03:25:35;;;;;;;54.13;28.27;;;4.30;99.90;;;;;;4935982;28;20115;-74
2023/12/09 03:28:05;;;;;;;57.25;28.50;;;4.10;99.90;;;;;;4940097;28;20053;-74
2023/12/09 03:30:31;;;;;;;92.45;34.33;;;4.10;99.90;;;;;;4936426;28;20560;-74
2023/12/09 03:32:58;;;;;;;58.38;30.80;;;4.10;99.90;;;;;;4941186;28;20515;-73
2023/12/09 03:35:25;;;;;;;56.67;28.00;;;4.00;99.90;;;;;;4937019;28;21285;-75
2023/12/09 03:37:52;;;;;;;69.63;29.95;;;4.00;99.90;;;;;;4957146;28;20042;-74
2023/12/09 03:40:19;;;;;;;53.85;29.98;;;4.00;99.90;;;;;;4962616;28;20042;-73
2023/12/09 03:42:45;;;;;;;55.70;29.33;;;4.00;99.90;;;;;;4923759;28;20050;-74
2023/12/09 03:45:12;;;;;;;57.60;30.75;;;3.90;99.90;;;;;;4937978;28;20061;-73
2023/12/09 03:47:39;;;;;;;51.03;27.67;;;3.90;99.90;;;;;;4934848;28;20141;-75
2023/12/09 03:50:06;;;;;;;64.32;29.08;;;3.80;99.90;;;;;;4941001;28;20050;-74
2023/12/09 03:52:33;;;;;;;59.58;29.40;;;3.80;99.90;;;;;;4938859;28;20709;-74
2023/12/09 03:55:00;;;;;;;73.90;30.55;;;4.00;99.90;;;;;;4935784;28;20059;-74
2023/12/09 03:57:27;;;;;;;79.38;30.08;;;4.00;99.90;;;;;;4918701;28;20043;-74
2023/12/09 03:59:53;;;;;;;45.92;27.02;;;4.00;99.90;;;;;;4936359;28;20067;-74
2023/12/09 04:02:20;;;;;;;63.17;30.65;;;4.00;99.90;;;;;;4939818;28;20045;-74
2023/12/09 04:04:47;;;;;;;49.05;27.08;;;3.90;99.90;;;;;;4935536;28;20039;-73
2023/12/09 04:07:14;;;;;;;46.03;26.88;;;3.90;99.90;;;;;;4948570;28;20039;-74
2023/12/09 04:09:41;;;;;;;55.50;26.55;;;4.00;99.90;;;;;;4934662;28;20054;-74
2023/12/09 04:12:08;;;;;;;50.15;26.52;;;4.00;99.90;;;;;;4926773;28;20035;-74
2023/12/09 04:14:35;;;;;;;57.72;26.98;;;3.90;99.90;;;;;;4951568;28;20053;-74
2023/12/09 04:17:02;;;;;;;58.40;29.48;;;3.90;99.90;;;;;;4937468;28;20043;-75
2023/12/09 04:19:28;;;;;;;65.75;28.10;;;4.00;99.90;;;;;;4954487;28;20042;-74
2023/12/09 04:21:56;;;;;;;58.67;28.17;;;4.00;99.90;;;;;;4935158;28;20250;-74
2023/12/09 04:24:23;;;;;;;45.13;25.48;;;4.00;99.90;;;;;;4917667;28;20042;-74
2023/12/09 04:26:50;;;;;;;45.00;25.13;;;3.90;99.90;;;;;;4947920;28;20148;-75
2023/12/09 04:29:17;;;;;;;48.45;24.65;;;3.90;99.90;;;;;;4937382;28;20038;-75
2023/12/09 04:31:44;;;;;;;43.53;24.05;;;4.00;99.90;;;;;;4932141;28;20043;-73
2023/12/09 04:34:10;;;;;;;53.38;24.55;;;4.00;99.90;;;;;;4961500;28;20460;-74
2023/12/09 04:36:37;;;;;;;52.30;26.25;;;4.00;99.90;;;;;;4920038;28;20156;-74
2023/12/09 04:39:05;;;;;;;49.85;24.52;;;4.00;99.90;;;;;;4942677;28;20509;-74
2023/12/09 04:41:32;;;;;;;41.40;24.33;;;4.00;99.90;;;;;;4926639;28;20303;-74
2023/12/09 04:43:58;;;;;;;62.45;26.48;;;4.00;99.90;;;;;;4937855;28;20689;-74
2023/12/09 04:46:25;;;;;;;52.63;25.42;;;4.00;99.90;;;;;;4931610;28;20054;-74
2023/12/09 04:48:52;;;;;;;41.85;22.80;;;3.90;99.90;;;;;;4946033;28;20053;-74
2023/12/09 04:51:19;;;;;;;54.40;24.38;;;3.90;99.90;;;;;;4958959;28;20034;-73
2023/12/09 04:53:46;;;;;;;50.10;24.58;;;3.90;99.90;;;;;;4956079;28;20050;-74
2023/12/09 04:56:13;;;;;;;55.40;26.75;;;3.90;99.90;;;;;;4956437;28;20042;-74
2023/12/09 04:58:40;;;;;;;64.78;26.42;;;3.80;99.90;;;;;;4932881;28;20065;-73
2023/12/09 05:01:06;;;;;;;57.17;26.70;;;3.80;99.90;;;;;;4941947;28;20039;-73
2023/12/09 05:03:33;;;;;;;56.20;27.85;;;3.70;99.90;;;;;;4933191;28;20744;-74
2023/12/09 05:06:00;;;;;;;68.78;26.73;;;3.60;99.90;;;;;;4949158;28;20102;-72
2023/12/09 05:08:28;;;;;;;52.50;26.65;;;3.50;99.90;;;;;;4936762;28;20110;-74
2023/12/09 05:10:55;;;;;;;66.25;28.15;;;3.40;99.90;;;;;;4932997;28;20118;-73
2023/12/09 05:13:22;;;;;;;56.05;28.95;;;3.40;99.90;;;;;;4935263;28;20055;-73
2023/12/09 05:15:49;;;;;;;53.70;26.98;;;3.30;99.90;;;;;;4936118;28;20138;-73
2023/12/09 05:18:20;;;;;;;61.72;28.80;;;3.20;99.90;;;;;;4937629;28;20129;-74
2023/12/09 05:20:47;;;;;;;65.18;29.33;;;3.20;99.90;;;;;;4939177;28;20254;-74
2023/12/09 05:23:15;;;;;;;60.90;30.67;;;3.00;99.90;;;;;;4926303;28;20498;-74
2023/12/09 05:25:43;;;;;;;53.85;28.80;;;2.90;99.90;;;;;;4938670;28;20134;-75
2023/12/09 05:28:10;;;;;;;64.55;29.92;;;3.00;99.90;;;;;;4939558;28;20078;-74
2023/12/09 05:30:40;;;;;;;58.83;30.40;;;3.00;99.90;;;;;;4919750;28;20130;-75
2023/12/09 05:33:07;;;;;;;68.22;30.23;;;2.90;99.90;;;;;;4951593;28;21545;-75
2023/12/09 05:35:35;;;;;;;65.28;31.63;;;2.80;99.90;;;;;;4931388;28;20138;-75
2023/12/09 05:38:02;;;;;;;67.35;32.05;;;2.80;99.90;;;;;;4958125;28;20541;-75
2023/12/09 05:40:29;;;;;;;61.20;30.90;;;2.80;99.90;;;;;;4956747;28;20055;-75
2023/12/09 05:43:00;;;;;;;57.97;29.77;;;2.80;99.90;;;;;;4964046;28;20050;-76
2023/12/09 05:45:27;;;;;;;65.88;30.63;;;2.90;99.90;;;;;;4940879;28;20046;-76
2023/12/09 05:47:54;;;;;;;62.85;30.70;;;2.90;99.90;;;;;;4955970;28;20134;-74
2023/12/09 05:50:21;;;;;;;60.92;30.25;;;2.90;99.90;;;;;;4940178;28;20081;-74
2023/12/09 05:52:48;;;;;;;63.65;29.15;;;3.00;99.90;;;;;;4934238;28;20056;-75
2023/12/09 05:55:16;;;;;;;69.93;29.67;;;3.10;99.90;;;;;;4954160;28;20051;-74
2023/12/09 05:57:43;;;;;;;61.53;30.08;;;3.00;99.90;;;;;;4951059;28;20454;-76
2023/12/09 06:00:12;;;;;;;70.32;31.23;;;3.00;99.90;;;;;;4937705;28;20047;-75
2023/12/09 06:02:40;;;;;;;60.13;30.08;;;3.00;99.90;;;;;;4940811;28;20043;-76
2023/12/09 06:05:08;;;;;;;66.72;30.05;;;3.10;99.90;;;;;;4921615;28;20663;-75
2023/12/09 06:07:35;;;;;;;67.03;30.00;;;3.10;99.90;;;;;;4935948;28;20137;-75
2023/12/09 06:10:03;;;;;;;66.05;30.77;;;3.10;99.90;;;;;;4940248;28;20505;-75
2023/12/09 06:12:29;;;;;;;67.53;30.23;;;3.20;99.90;;;;;;4919763;28;20497;-76
2023/12/09 06:14:57;;;;;;;56.47;29.50;;;3.10;99.90;;;;;;4958612;28;20070;-76
2023/12/09 06:17:24;;;;;;;55.53;30.35;;;3.20;99.90;;;;;;4939697;28;20529;-74
2023/12/09 06:19:51;;;;;;;67.25;31.23;;;3.20;99.90;;;;;;4937474;28;20054;-75
2023/12/09 06:22:18;;;;;;;60.08;29.63;;;3.10;99.90;;;;;;4935458;28;20208;-76
2023/12/09 06:24:44;;;;;;;66.45;30.08;;;3.10;99.90;;;;;;4938649;28;20542;-75
2023/12/09 06:27:12;;;;;;;62.30;32.40;;;3.10;99.90;;;;;;4941640;28;20051;-76
2023/12/09 06:29:39;;;;;;;61.55;32.88;;;3.10;99.90;;;;;;4922620;28;20031;-75
2023/12/09 06:32:06;;;;;;;74.88;36.13;;;3.20;99.90;;;;;;4938161;28;20126;-75
2023/12/09 06:34:32;;;;;;;61.83;32.88;;;3.30;99.90;;;;;;4939644;28;20188;-75
2023/12/09 06:36:59;;;;;;;61.30;31.92;;;3.20;99.90;;;;;;4943173;28;20092;-76
2023/12/09 06:39:26;;;;;;;63.25;31.65;;;3.20;99.90;;;;;;4917611;28;20607;-75
2023/12/09 06:41:56;;;;;;;70.72;31.92;;;3.10;99.90;;;;;;4938149;28;20067;-75
2023/12/09 06:44:23;;;;;;;64.38;31.02;;;3.10;99.90;;;;;;4929862;28;20080;-75
2023/12/09 06:46:49;;;;;;;66.18;31.05;;;3.10;99.90;;;;;;4952642;28;20081;-75
2023/12/09 06:49:18;;;;;;;77.50;31.25;;;3.00;99.90;;;;;;4937353;28;20747;-74
2023/12/09 06:51:47;;;;;;;63.72;32.13;;;3.00;99.90;;;;;;4950470;28;20045;-75
2023/12/09 06:54:14;;;;;;;63.15;30.42;;;2.90;99.90;;;;;;4950235;28;20108;-75
2023/12/09 06:56:40;;;;;;;70.53;29.35;;;2.80;99.90;;;;;;4934291;28;20043;-74
2023/12/09 06:59:07;;;;;;;75.10;30.35;;;2.70;99.90;;;;;;4932945;28;20061;-75
2023/12/09 07:01:34;;;;;;;70.82;29.23;;;2.70;99.90;;;;;;4929545;28;20201;-76
2023/12/09 07:04:01;;;;;;;72.07;28.20;;;2.60;99.90;;;;;;4931742;28;20051;-75
2023/12/09 07:06:29;;;;;;;78.43;31.02;;;2.60;99.90;;;;;;4935697;28;20135;-76
2023/12/09 07:08:59;;;;;;;83.38;34.30;;;2.50;99.90;;;;;;4949787;28;20062;-75
2023/12/09 07:11:26;;;;;;;86.88;33.35;;;2.60;99.90;;;;;;4932108;28;20565;-75
2023/12/09 07:13:53;;;;;;;89.03;34.55;;;2.50;99.90;;;;;;4944982;28;22643;-75
2023/12/09 07:16:20;;;;;;;73.95;30.45;;;2.50;99.90;;;;;;4952571;28;20108;-76
2023/12/09 07:18:50;;;;;;;76.60;29.83;;;2.50;99.90;;;;;;4926534;28;20564;-74
2023/12/09 07:21:17;;;;;;;65.20;27.90;;;2.40;99.90;;;;;;4949722;28;20038;-74
2023/12/09 07:23:44;;;;;;;68.97;26.48;;;2.50;99.90;;;;;;4931572;28;20038;-71
2023/12/09 07:26:12;;;;;;;65.82;26.25;;;2.50;99.90;;;;;;4937493;28;20047;-72
2023/12/09 07:28:39;;;;;;;57.50;24.63;;;2.50;99.90;;;;;;4938757;28;20050;-72
2023/12/09 07:31:05;;;;;;;52.55;26.38;;;2.40;99.90;;;;;;4939913;28;20049;-71
2023/12/09 07:33:32;;;;;;;64.65;26.15;;;2.50;99.90;;;;;;4963027;28;20042;-73
2023/12/09 07:36:02;;;;;;;64.65;26.13;;;2.50;99.90;;;;;;4937811;28;20046;-73
2023/12/09 07:38:29;;;;;;;53.45;28.58;;;2.50;99.90;;;;;;4937448;28;20719;-72
2023/12/09 07:40:56;;;;;;;58.97;28.17;;;2.50;99.90;;;;;;4932212;28;20498;-73
2023/12/09 07:43:23;;;;;;;53.10;26.77;;;2.50;99.90;;;;;;4933007;28;20050;-73
2023/12/09 07:45:50;;;;;;;56.30;29.05;;;2.60;99.90;;;;;;4935566;28;20667;-74
2023/12/09 07:48:17;;;;;;;55.30;27.85;;;2.60;99.90;;;;;;4925246;28;20600;-73
2023/12/09 07:50:44;;;;;;;61.05;28.15;;;2.60;99.90;;;;;;4913617;28;20331;-72
2023/12/09 07:53:11;;;;;;;62.55;26.98;;;2.70;99.90;;;;;;4951211;28;20600;-72
2023/12/09 07:55:38;;;;;;;71.25;30.52;;;2.70;99.90;;;;;;4928194;28;20046;-72
2023/12/09 07:58:04;;;;;;;71.30;35.20;;;2.70;99.90;;;;;;4930613;28;20110;-72
2023/12/09 08:00:31;;;;;;;46.03;27.88;;;2.70;99.90;;;;;;4932752;28;20101;-73
2023/12/09 08:03:04;;;;;;;64.68;31.17;;;2.80;99.90;;;;;;4930482;28;20098;-71
2023/12/09 08:05:34;;;;;;;70.68;34.40;;;2.90;99.90;;;;;;4916747;28;20109;-73
2023/12/09 08:08:03;;;;;;;61.67;31.10;;;3.00;99.90;;;;;;4948790;28;20054;-72
2023/12/09 08:10:29;;;;;;;55.20;29.42;;;3.00;99.90;;;;;;4933185;28;20055;-73
2023/12/09 08:12:56;;;;;;;63.97;33.35;;;3.00;99.90;;;;;;4946532;28;20109;-72
2023/12/09 08:15:23;;;;;;;60.85;32.45;;;3.10;99.90;;;;;;4937695;28;20038;-73
2023/12/09 08:17:51;;;;;;;67.28;33.45;;;3.10;99.90;;;;;;4935508;28;20043;-73
2023/12/09 08:20:18;;;;;;;65.22;37.03;;;3.20;99.90;;;;;;4926672;28;20041;-72
2023/12/09 08:22:45;;;;;;;64.28;37.50;;;3.20;99.90;;;;;;4954155;28;20053;-72
2023/12/09 08:25:12;;;;;;;49.80;29.70;;;3.30;99.90;;;;;;4948376;28;20712;-71
2023/12/09 08:27:39;;;;;;;58.95;32.22;;;3.30;99.90;;;;;;4931481;28;20448;-73
2023/12/09 08:30:10;;;;;;;59.25;34.60;;;3.30;99.90;;;;;;4929864;28;20625;-72
2023/12/09 08:32:39;;;;;;;46.40;32.40;;;3.40;99.90;;;;;;4948861;28;20067;-71
2023/12/09 08:35:06;;;;;;;44.00;33.47;;;3.60;99.90;;;;;;4934100;28;20050;-72
2023/12/09 08:37:37;;;;;;;50.15;34.22;;;3.70;99.90;;;;;;4930212;28;20101;-72
2023/12/09 08:40:13;;;;;;;49.17;34.78;;;3.90;99.90;;;;;;4916371;28;20039;-73
2023/12/09 08:42:42;;;;;;;54.92;39.55;;;4.00;99.90;;;;;;4928489;28;20054;-72
2023/12/09 08:45:12;;;;;;;47.50;35.45;;;4.30;99.90;;;;;;4938268;28;20050;-73
2023/12/09 08:47:39;;;;;;;36.92;32.92;;;4.40;99.90;;;;;;4936261;28;20047;-70
2023/12/09 08:50:14;;;;;;;31.90;27.80;;;4.70;99.90;;;;;;4930523;28;20066;-74
2023/12/09 08:52:44;;;;;;;31.23;28.17;;;4.80;99.90;;;;;;4933532;28;20174;-73
2023/12/09 08:55:11;;;;;;;31.20;27.63;;;5.00;99.90;;;;;;4945719;28;20043;-72
2023/12/09 08:57:38;;;;;;;33.25;30.17;;;5.20;99.90;;;;;;4947913;28;20509;-73
2023/12/09 09:00:09;;;;;;;27.77;24.80;;;5.30;99.90;;;;;;4946824;28;20050;-73
2023/12/09 09:02:36;;;;;;;31.98;29.10;;;5.40;99.90;;;;;;4950323;28;20052;-71
2023/12/09 09:05:03;;;;;;;35.25;32.05;;;5.30;99.90;;;;;;4935590;28;20061;-72
2023/12/09 09:07:30;;;;;;;35.65;32.85;;;5.20;99.90;;;;;;4949850;28;20888;-72
2023/12/09 09:09:57;;;;;;;23.73;21.42;;;5.30;99.90;;;;;;4933788;28;20056;-72
2023/12/09 09:12:24;;;;;;;28.05;22.63;;;5.20;99.90;;;;;;4913187;28;20072;-73
2023/12/09 09:14:52;;;;;;;22.33;19.90;;;5.10;99.90;;;;;;4934148;28;20070;-72
2023/12/09 09:17:19;;;;;;;22.08;19.88;;;5.00;99.90;;;;;;4949677;28;20508;-73
2023/12/09 09:19:46;;;;;;;27.63;21.15;;;5.00;99.90;;;;;;4917402;28;20051;-71
2023/12/09 09:22:13;;;;;;;21.67;19.38;;;4.90;99.90;;;;;;4932517;28;20046;-73
2023/12/09 09:24:39;;;;;;;19.70;17.33;;;4.80;99.90;;;;;;4945009;28;20051;-72
2023/12/09 09:27:08;;;;;;;20.60;18.20;;;4.80;99.90;;;;;;4931568;28;20039;-72
2023/12/09 09:29:35;;;;;;;23.23;18.65;;;4.80;99.90;;;;;;4933245;28;20046;-73
2023/12/09 09:32:02;;;;;;;21.90;18.45;;;4.90;99.90;;;;;;4934402;28;20075;-74
2023/12/09 09:34:29;;;;;;;22.08;18.40;;;4.90;99.90;;;;;;4917335;28;20138;-73
2023/12/09 09:36:56;;;;;;;19.25;16.10;;;4.90;99.90;;;;;;4932509;28;20069;-73
2023/12/09 09:39:23;;;;;;;19.75;15.32;;;4.90;99.90;;;;;;4949817;28;20725;-73
2023/12/09 09:42:02;;;;;;;16.45;14.75;;;5.00;99.90;;;;;;4928973;28;20506;-74
2023/12/09 09:44:32;;;;;;;25.45;13.65;;;5.00;99.90;;;;;;4952767;28;20577;-73
2023/12/09 09:47:00;;;;;;;15.55;13.15;;;5.00;99.90;;;;;;4913424;28;20130;-75
2023/12/09 09:49:30;;;;;;;21.23;16.02;;;4.90;99.90;;;;;;4943976;28;20090;-75
2023/12/09 09:52:00;;;;;;;19.30;14.50;;;5.00;99.90;;;;;;4949477;28;20035;-74
2023/12/09 09:54:29;;;;;;;15.40;12.60;;;5.10;99.90;;;;;;4919398;28;20054;-74
2023/12/09 09:56:58;;;;;;;16.33;12.80;;;5.30;99.90;;;;;;4927557;28;20398;-75
2023/12/09 09:59:26;;;;;;;17.88;13.95;;;5.50;99.90;;;;;;4928796;28;20047;-75
2023/12/09 10:01:53;;;;;;;15.80;14.20;;;5.70;99.90;;;;;;4929313;28;20047;-76
2023/12/09 10:04:19;;;;;;;17.63;15.88;;;5.80;99.90;;;;;;4936403;28;20057;-75
2023/12/09 10:06:48;;;;;;;19.15;17.38;;;5.90;99.90;;;;;;4951502;28;20043;-74
2023/12/09 10:09:15;;;;;;;21.75;19.77;;;6.10;99.90;;;;;;4956750;28;20093;-73
2023/12/09 10:11:44;;;;;;;22.10;19.27;;;6.10;99.90;;;;;;4934204;28;20107;-74
2023/12/09 10:14:11;;;;;;;21.42;19.70;;;6.30;99.90;;;;;;4937596;28;20638;-75
2023/12/09 10:16:38;;;;;;;19.60;17.95;;;6.30;99.90;;;;;;4931097;28;20061;-74
2023/12/09 10:19:09;;;;;;;23.00;21.30;;;6.20;99.90;;;;;;4937415;28;20057;-74
2023/12/09 10:21:36;;;;;;;19.63;17.80;;;6.10;99.90;;;;;;4916707;28;20046;-75
2023/12/09 10:24:04;;;;;;;21.23;19.48;;;6.00;99.90;;;;;;4927647;28;20142;-75
2023/12/09 10:26:31;;;;;;;22.35;20.40;;;5.90;99.90;;;;;;4935180;28;20043;-75
2023/12/09 10:28:58;;;;;;;20.23;18.23;;;5.80;99.90;;;;;;4932778;28;20462;-76
2023/12/09 10:31:27;;;;;;;22.45;20.38;;;5.80;99.90;;;;;;4937838;28;20154;-75
2023/12/09 10:33:58;;;;;;;18.33;16.25;;;5.80;99.90;;;;;;4948641;28;20086;-75
2023/12/09 10:36:25;;;;;;;23.45;16.50;;;5.60;99.90;;;;;;4922341;28;20142;-76
2023/12/09 10:38:52;;;;;;;20.63;15.00;;;5.40;99.90;;;;;;4933232;28;20047;-75
2023/12/09 10:41:21;;;;;;;19.17;14.70;;;5.30;99.90;;;;;;4927415;28;20046;-76
2023/12/09 10:43:48;;;;;;;20.38;13.85;;;5.20;99.90;;;;;;4925333;28;20482;-74
2023/12/09 10:46:15;;;;;;;21.70;14.10;;;5.10;99.90;;;;;;4932087;28;20081;-75
2023/12/09 10:48:42;;;;;;;24.65;15.05;;;5.10;99.90;;;;;;4934382;28;20035;-75
2023/12/09 10:51:09;;;;;;;22.92;12.48;;;5.00;99.90;;;;;;4931005;28;20485;-74
2023/12/09 10:53:37;;;;;;;22.80;13.40;;;4.90;99.90;;;;;;4938995;28;20055;-76
2023/12/09 10:56:06;;;;;;;21.63;14.02;;;4.80;99.90;;;;;;4932694;28;20047;-74
2023/12/09 10:58:36;;;;;;;21.35;12.40;;;4.90;99.90;;;;;;4956726;28;20356;-76
2023/12/09 11:01:07;;;;;;;15.88;11.35;;;4.90;99.90;;;;;;4931801;28;20041;-74
2023/12/09 11:03:35;;;;;;;22.05;13.40;;;5.00;99.90;;;;;;4939912;28;20050;-75
2023/12/09 11:06:06;;;;;;;20.63;12.57;;;5.20;99.90;;;;;;4924600;28;20173;-76
2023/12/09 11:08:38;;;;;;;25.13;14.00;;;5.30;99.90;;;;;;4950286;28;20537;-75
2023/12/09 11:11:07;;;;;;;19.40;13.10;;;5.40;99.90;;;;;;4929251;28;20058;-75
2023/12/09 11:13:36;;;;;;;16.90;13.77;;;5.60;99.90;;;;;;4933515;28;20574;-74
2023/12/09 11:16:20;;;;;;;18.20;14.35;;;5.60;99.90;;;;;;4920977;28;20957;-74
2023/12/09 11:18:51;;;;;;;18.10;14.43;;;5.70;99.90;;;;;;4935753;28;20042;-72
2023/12/09 11:21:21;;;;;;;19.92;13.68;;;5.70;99.90;;;;;;4936861;28;20134;-73
2023/12/09 11:23:50;;;;;;;17.27;13.38;;;5.70;99.90;;;;;;4935388;28;20050;-72
2023/12/09 11:26:19;;;;;;;21.63;14.23;;;5.70;99.90;;;;;;4951617;28;20046;-75
2023/12/09 11:29:06;;;;;;;15.90;14.25;;;5.60;99.90;;;;;;4928757;28;20059;-74
2023/12/09 11:31:37;;;;;;;13.65;12.48;;;5.80;99.90;;;;;;4917861;28;20547;-73
2023/12/09 11:34:06;;;;;;;17.48;13.95;;;5.80;99.90;;;;;;4932894;28;20965;-74
2023/12/09 11:36:38;;;;;;;20.00;14.82;;;5.70;99.90;;;;;;4934538;28;20058;-72
2023/12/09 11:39:10;;;;;;;14.50;12.98;;;5.60;99.90;;;;;;4936207;28;20046;-74
2023/12/09 11:41:38;;;;;;;20.70;13.43;;;5.50;99.90;;;;;;4929583;28;20046;-73
2023/12/09 11:44:06;;;;;;;16.65;12.35;;;5.40;99.90;;;;;;4931874;28;20065;-74
2023/12/09 11:46:34;;;;;;;14.32;11.52;;;5.40;99.90;;;;;;4934102;28;20688;-73
2023/12/09 11:49:03;;;;;;;19.48;12.55;;;5.40;99.90;;;;;;4956970;28;20142;-74
2023/12/09 11:51:36;;;;;;;16.92;11.70;;;5.30;99.90;;;;;;4941263;28;20131;-74
2023/12/09 11:54:08;;;;;;;17.55;12.95;;;5.30;99.90;;;;;;4928652;28;20049;-73
2023/12/09 11:56:37;;;;;;;19.90;11.75;;;5.30;99.90;;;;;;4933486;28;20050;-73
2023/12/09 11:59:05;;;;;;;21.63;13.20;;;5.30;99.90;;;;;;4951825;28;20043;-73
2023/12/09 12:01:33;;;;;;;22.15;13.23;;;5.30;99.90;;;;;;4937102;28;20674;-74
2023/12/09 12:04:00;;;;;;;17.75;11.77;;;5.30;99.90;;;;;;4933291;28;20056;-75
2023/12/09 12:06:28;;;;;;;14.38;10.63;;;5.40;99.90;;;;;;4934732;28;20050;-74
2023/12/09 12:08:58;;;;;;;23.05;14.05;;;5.30;99.90;;;;;;4951754;28;20047;-73
2023/12/09 12:11:26;;;;;;;19.20;11.20;;;5.40;99.90;;;;;;4933819;28;20046;-73
2023/12/09 12:13:53;;;;;;;21.73;13.10;;;5.40;99.90;;;;;;4943841;28;20043;-73
2023/12/09 12:16:21;;;;;;;21.08;13.52;;;5.40;99.90;;;;;;4938933;28;20117;-72
2023/12/09 12:18:51;;;;;;;26.58;14.75;;;5.40;99.90;;;;;;4940937;28;20136;-72
2023/12/09 12:21:18;;;;;;;18.30;11.98;;;5.40;99.90;;;;;;4932074;28;20040;-74
2023/12/09 12:23:51;;;;;;;23.80;14.77;;;5.40;99.90;;;;;;4936517;28;20079;-73
2023/12/09 12:26:19;;;;;;;23.85;13.80;;;5.30;99.90;;;;;;4929115;28;20105;-73
2023/12/09 12:28:51;;;;;;;21.98;12.63;;;5.40;99.90;;;;;;4914191;29;20746;-74
2023/12/09 12:31:18;;;;;;;19.50;13.25;;;5.30;99.90;;;;;;4938533;28;20042;-72
2023/12/09 12:33:45;;;;;;;26.67;16.02;;;5.30;99.90;;;;;;4955980;28;20042;-75
2023/12/09 12:36:13;;;;;;;26.40;17.20;;;5.40;99.90;;;;;;4935647;28;20412;-73
2023/12/09 12:38:40;;;;;;;31.02;15.30;;;5.40;99.90;;;;;;4932585;28;20047;-73